createdAt,value
2018-09-06T00:01:26.507Z,99.90
2018-09-06T00:03:54.746Z,99.90
2018-09-06T00:06:23.871Z,99.90
2018-09-06T00:08:52.151Z,99.90
2018-09-06T00:11:20.770Z,99.90
2018-09-06T00:13:49.250Z,99.90
2018-09-06T00:16:18.099Z,99.90
2018-09-06T00:18:46.338Z,99.90
2018-09-06T00:21:14.598Z,99.90
2018-09-06T00:23:43.434Z,99.90
2018-09-06T00:26:12.026Z,99.90
2018-09-06T00:28:40.256Z,99.90
2018-09-06T00:33:30.357Z,99.90
2018-09-06T00:35:58.971Z,99.90
2018-09-06T00:38:27.275Z,99.90
2018-09-06T00:40:55.891Z,99.90
2018-09-06T00:43:24.488Z,99.90
2018-09-06T00:45:53.086Z,99.90
2018-09-06T00:48:21.349Z,99.90
2018-09-06T00:50:49.975Z,99.90
2018-09-06T00:53:18.923Z,99.90
2018-09-06T00:55:47.200Z,99.90
2018-09-06T00:58:15.881Z,99.90
2018-09-06T01:00:51.073Z,99.90
2018-09-06T01:03:19.324Z,99.90
2018-09-06T01:05:48.090Z,99.90
2018-09-06T01:08:16.430Z,99.90
2018-09-06T01:10:44.682Z,99.90
2018-09-06T01:13:13.367Z,99.90
2018-09-06T01:15:42.786Z,99.90
2018-09-06T01:18:11.209Z,99.90
2018-09-06T01:20:39.497Z,99.90
2018-09-06T01:23:09.053Z,99.90
2018-09-06T01:25:42.649Z,99.90
2018-09-06T01:28:11.584Z,99.90
2018-09-06T01:30:40.129Z,99.90
2018-09-06T01:33:08.384Z,99.90
2018-09-06T01:38:15.914Z,99.90
2018-09-06T01:43:19.203Z,99.90
2018-09-06T01:45:47.636Z,99.90
2018-09-06T01:48:15.868Z,99.90
2018-09-06T01:50:44.209Z,99.90
2018-09-06T01:53:12.822Z,99.90
2018-09-06T01:55:41.206Z,99.90
2018-09-06T01:58:09.742Z,99.90
2018-09-06T02:00:38.034Z,99.90
2018-09-06T02:03:06.338Z,99.90
2018-09-06T02:05:37.681Z,99.90
2018-09-06T02:08:07.461Z,99.90
2018-09-06T02:10:35.918Z,99.90
2018-09-06T02:13:04.636Z,99.90
2018-09-06T02:15:33.357Z,99.90
2018-09-06T02:18:01.593Z,99.90
2018-09-06T02:20:29.830Z,99.90
2018-09-06T02:22:58.103Z,99.90
2018-09-06T02:25:26.794Z,99.90
2018-09-06T02:27:55.067Z,99.90
2018-09-06T02:30:23.974Z,99.90
2018-09-06T02:32:52.201Z,99.90
2018-09-06T02:35:20.464Z,99.90
2018-09-06T02:37:49.166Z,99.90
2018-09-06T02:40:23.435Z,99.90
2018-09-06T02:42:52.221Z,99.90
2018-09-06T02:45:20.485Z,99.90
2018-09-06T02:47:53.729Z,99.90
2018-09-06T02:50:27.646Z,99.90
2018-09-06T02:52:57.242Z,99.90
2018-09-06T02:55:26.829Z,99.90
2018-09-06T02:57:55.094Z,99.90
2018-09-06T03:00:28.638Z,99.90
2018-09-06T03:02:57.199Z,99.90
2018-09-06T03:05:26.475Z,99.90
2018-09-06T03:07:55.857Z,99.90
2018-09-06T03:10:24.159Z,99.90
2018-09-06T03:12:53.433Z,99.90
2018-09-06T03:15:22.613Z,99.90
2018-09-06T03:17:50.803Z,99.90
2018-09-06T03:20:19.554Z,99.90
2018-09-06T03:22:47.855Z,99.90
2018-09-06T03:25:16.156Z,99.90
2018-09-06T03:27:44.421Z,99.90
2018-09-06T03:30:13.002Z,99.90
2018-09-06T03:32:41.218Z,99.90
2018-09-06T03:35:10.049Z,99.90
2018-09-06T03:37:38.982Z,99.90
2018-09-06T03:40:08.036Z,99.90
2018-09-06T03:42:36.766Z,99.90
2018-09-06T03:45:05.689Z,99.90
2018-09-06T03:47:33.942Z,99.90
2018-09-06T03:50:02.283Z,99.90
2018-09-06T03:52:30.998Z,99.90
2018-09-06T03:54:59.378Z,99.90
2018-09-06T03:57:28.097Z,99.90
2018-09-06T03:59:56.334Z,99.90
2018-09-06T04:02:24.564Z,99.90
2018-09-06T04:04:53.438Z,99.90
2018-09-06T04:07:22.140Z,99.90
2018-09-06T04:09:50.834Z,99.90
2018-09-06T04:12:19.282Z,99.90
2018-09-06T04:14:48.184Z,99.90
2018-09-06T04:17:16.777Z,99.90
2018-09-06T04:19:45.024Z,99.90
2018-09-06T04:22:13.307Z,99.90
2018-09-06T04:24:42.145Z,99.90
2018-09-06T04:27:11.395Z,99.90
2018-09-06T04:29:39.634Z,99.90
2018-09-06T04:32:07.973Z,99.90
2018-09-06T04:34:36.286Z,99.90
2018-09-06T04:37:04.870Z,99.90
2018-09-06T04:39:34.116Z,99.90
2018-09-06T04:42:02.365Z,99.90
2018-09-06T04:44:30.592Z,99.90
2018-09-06T04:46:59.204Z,99.90
2018-09-06T04:49:27.429Z,99.90
2018-09-06T04:51:55.730Z,99.90
2018-09-06T04:54:24.290Z,99.90
2018-09-06T04:56:52.561Z,99.90
2018-09-06T04:59:20.819Z,99.90
2018-09-06T05:01:49.093Z,99.90
2018-09-06T05:04:17.346Z,99.90
2018-09-06T05:06:46.239Z,99.90
2018-09-06T05:09:14.882Z,99.90
2018-09-06T05:11:43.898Z,99.90
2018-09-06T05:14:13.024Z,99.90
2018-09-06T05:16:42.179Z,99.90
2018-09-06T05:19:10.660Z,99.90
2018-09-06T05:21:38.912Z,99.90
2018-09-06T05:24:07.509Z,99.90
2018-09-06T05:26:35.802Z,99.90
2018-09-06T05:29:04.750Z,99.90
2018-09-06T05:31:33.010Z,99.90
2018-09-06T05:34:01.246Z,99.90
2018-09-06T05:36:30.058Z,99.90
2018-09-06T05:38:59.041Z,99.90
2018-09-06T05:41:27.422Z,99.90
2018-09-06T05:43:56.153Z,99.90
2018-09-06T05:46:24.447Z,99.90
2018-09-06T05:48:52.764Z,99.90
2018-09-06T05:51:20.998Z,99.90
2018-09-06T05:53:49.478Z,99.90
2018-09-06T05:56:18.305Z,99.90
2018-09-06T05:58:46.526Z,99.90
2018-09-06T06:01:14.921Z,99.90
2018-09-06T06:03:43.161Z,99.90
2018-09-06T06:06:11.945Z,99.90
2018-09-06T06:08:50.349Z,99.90
2018-09-06T06:11:19.589Z,99.90
2018-09-06T06:13:48.164Z,99.90
2018-09-06T06:16:17.358Z,99.90
2018-09-06T06:18:52.046Z,99.90
2018-09-06T06:21:20.281Z,99.90
2018-09-06T06:23:48.549Z,99.90
2018-09-06T06:26:16.805Z,99.90
2018-09-06T06:28:45.616Z,99.90
2018-09-06T06:31:14.338Z,99.90
2018-09-06T06:33:43.072Z,99.90
2018-09-06T06:36:11.606Z,99.90
2018-09-06T06:38:39.847Z,99.90
2018-09-06T06:41:08.278Z,99.90
2018-09-06T06:43:36.538Z,99.90
2018-09-06T06:46:04.766Z,99.90
2018-09-06T06:48:33.025Z,99.90
2018-09-06T06:51:01.292Z,99.90
2018-09-06T06:53:30.601Z,99.90
2018-09-06T06:55:58.829Z,99.90
2018-09-06T06:58:27.637Z,99.90
2018-09-06T07:00:55.929Z,99.90
2018-09-06T07:03:24.107Z,99.90
2018-09-06T07:05:52.820Z,99.90
2018-09-06T07:08:21.042Z,99.90
2018-09-06T07:10:50.473Z,99.90
2018-09-06T07:13:19.302Z,99.90
2018-09-06T07:15:48.129Z,99.90
2018-09-06T07:18:16.515Z,99.90
2018-09-06T07:20:45.267Z,99.90
2018-09-06T07:23:14.317Z,99.90
2018-09-06T07:25:42.561Z,99.90
2018-09-06T07:28:11.482Z,99.90
2018-09-06T07:30:39.901Z,99.90
2018-09-06T07:33:08.405Z,99.90
2018-09-06T07:35:36.988Z,99.90
2018-09-06T07:38:05.690Z,99.90
2018-09-06T07:40:34.327Z,99.90
2018-09-06T07:43:02.757Z,99.90
2018-09-06T07:45:31.758Z,99.90
2018-09-06T07:48:00.129Z,99.90
2018-09-06T07:50:28.346Z,99.90
2018-09-06T07:52:57.309Z,99.90
2018-09-06T07:55:25.555Z,99.90
2018-09-06T07:57:53.786Z,99.90
2018-09-06T08:00:22.025Z,99.90
2018-09-06T08:02:50.778Z,99.90
2018-09-06T08:05:19.688Z,99.90
2018-09-06T08:07:48.462Z,99.90
2018-09-06T08:10:16.731Z,99.90
2018-09-06T08:12:44.962Z,99.90
2018-09-06T08:15:13.949Z,99.90
2018-09-06T08:17:42.197Z,99.90
2018-09-06T08:20:10.449Z,99.90
2018-09-06T08:22:38.713Z,99.90
2018-09-06T08:25:07.042Z,99.90
2018-09-06T08:27:35.349Z,99.20
2018-09-06T08:30:03.611Z,98.20
2018-09-06T08:32:32.301Z,99.20
2018-09-06T08:35:00.534Z,98.70
2018-09-06T08:37:29.187Z,97.70
2018-09-06T08:39:57.988Z,98.60
2018-09-06T08:42:26.210Z,98.00
2018-09-06T08:44:54.464Z,93.50
2018-09-06T08:47:22.753Z,94.80
2018-09-06T08:49:50.977Z,95.40
2018-09-06T08:52:19.613Z,94.50
2018-09-06T08:54:47.827Z,88.60
2018-09-06T08:57:22.287Z,92.40
2018-09-06T08:59:51.114Z,90.40
2018-09-06T09:02:19.466Z,92.40
2018-09-06T09:04:48.034Z,82.40
2018-09-06T09:07:16.465Z,78.10
2018-09-06T09:09:44.691Z,82.00
2018-09-06T09:12:13.302Z,71.70
2018-09-06T09:14:42.233Z,74.00
2018-09-06T09:17:10.461Z,79.40
2018-09-06T09:19:39.046Z,81.90
2018-09-06T09:22:07.288Z,71.40
2018-09-06T09:24:35.497Z,74.40
2018-09-06T09:27:04.249Z,68.40
2018-09-06T09:29:32.483Z,72.30
2018-09-06T09:32:00.715Z,71.30
2018-09-06T09:34:28.963Z,77.70
2018-09-06T09:36:57.554Z,75.90
2018-09-06T09:39:26.674Z,72.00
2018-09-06T09:41:54.924Z,68.10
2018-09-06T09:44:23.670Z,65.20
2018-09-06T09:49:20.265Z,65.00
2018-09-06T09:51:48.634Z,62.10
2018-09-06T09:54:17.577Z,56.50
2018-09-06T09:56:46.555Z,60.50
2018-09-06T09:59:14.769Z,61.80
2018-09-06T10:01:48.333Z,60.60
2018-09-06T10:04:22.466Z,59.90
2018-09-06T10:06:56.370Z,60.60
2018-09-06T10:09:25.675Z,59.80
2018-09-06T10:11:54.361Z,57.60
2018-09-06T10:14:28.785Z,64.20
2018-09-06T10:16:56.997Z,57.90
2018-09-06T10:19:25.250Z,55.00
2018-09-06T10:21:53.491Z,57.70
2018-09-06T10:24:21.716Z,55.20
2018-09-06T10:26:50.126Z,56.40
2018-09-06T10:29:18.357Z,57.10
2018-09-06T10:31:46.610Z,60.90
2018-09-06T10:34:14.842Z,58.60
2018-09-06T10:36:43.817Z,60.00
2018-09-06T10:39:12.776Z,58.50
2018-09-06T10:41:41.606Z,58.00
2018-09-06T10:44:09.832Z,57.90
2018-09-06T10:46:38.767Z,58.40
2018-09-06T10:49:06.984Z,57.50
2018-09-06T10:51:35.491Z,55.20
2018-09-06T10:54:04.078Z,56.80
2018-09-06T10:56:32.653Z,56.80
2018-09-06T10:59:00.916Z,55.70
2018-09-06T11:01:29.213Z,53.90
2018-09-06T11:03:57.846Z,54.70
2018-09-06T11:06:26.953Z,54.20
2018-09-06T11:08:55.185Z,61.20
2018-09-06T11:11:23.976Z,64.60
2018-09-06T11:13:52.201Z,58.90
2018-09-06T11:16:21.861Z,57.30
2018-09-06T11:18:50.102Z,58.70
2018-09-06T11:21:18.437Z,59.60
2018-09-06T11:23:46.594Z,64.50
2018-09-06T11:26:14.789Z,61.60
2018-09-06T11:28:43.100Z,57.80
2018-09-06T11:31:11.354Z,56.60
2018-09-06T11:33:39.736Z,54.00
2018-09-06T11:36:08.674Z,56.30
2018-09-06T11:38:37.796Z,58.90
2018-09-06T11:41:06.758Z,58.80
2018-09-06T11:43:35.029Z,53.20
2018-09-06T11:46:03.286Z,55.50
2018-09-06T11:48:31.727Z,59.10
2018-09-06T11:51:00.005Z,58.30
2018-09-06T11:53:28.669Z,59.50
2018-09-06T11:55:56.898Z,53.60
2018-09-06T11:58:25.126Z,53.80
2018-09-06T12:00:56.082Z,55.00
2018-09-06T12:03:24.896Z,56.30
2018-09-06T12:05:53.859Z,55.40
2018-09-06T12:08:22.094Z,61.30
2018-09-06T12:10:50.369Z,58.90
2018-09-06T12:13:18.782Z,57.10
2018-09-06T12:15:47.806Z,56.70
2018-09-06T12:18:16.118Z,57.80
2018-09-06T12:20:44.370Z,58.20
2018-09-06T12:23:13.001Z,56.70
2018-09-06T12:25:41.674Z,57.50
2018-09-06T12:28:09.858Z,55.80
2018-09-06T12:30:38.521Z,60.20
2018-09-06T12:33:06.800Z,57.20
2018-09-06T12:35:35.106Z,57.80
2018-09-06T12:38:04.125Z,59.50
2018-09-06T12:40:32.962Z,57.80
2018-09-06T12:43:07.014Z,57.00
2018-09-06T12:45:35.250Z,61.90
2018-09-06T12:48:03.512Z,62.30
2018-09-06T12:50:31.749Z,57.90
2018-09-06T12:53:00.782Z,55.40
2018-09-06T12:55:29.066Z,57.10
2018-09-06T12:57:57.862Z,57.50
2018-09-06T13:00:26.130Z,56.90
2018-09-06T13:02:54.341Z,57.20
2018-09-06T13:05:23.980Z,57.90
2018-09-06T13:07:53.000Z,55.70
2018-09-06T13:10:21.230Z,54.20
2018-09-06T13:12:49.879Z,56.90
2018-09-06T13:15:18.574Z,54.30
2018-09-06T13:17:46.810Z,55.90
2018-09-06T13:20:15.033Z,54.10
2018-09-06T13:22:44.201Z,51.70
2018-09-06T13:25:12.410Z,49.50
2018-09-06T13:27:40.631Z,50.30
2018-09-06T13:30:08.902Z,46.80
2018-09-06T13:32:37.130Z,49.00
2018-09-06T13:35:05.453Z,44.90
2018-09-06T13:37:34.026Z,44.50
2018-09-06T13:40:02.901Z,39.40
2018-09-06T13:42:31.131Z,44.80
2018-09-06T13:44:59.381Z,38.50
2018-09-06T13:47:27.609Z,38.90
2018-09-06T13:49:55.833Z,41.40
2018-09-06T13:52:24.594Z,42.80
2018-09-06T13:54:52.830Z,44.60
2018-09-06T13:57:21.058Z,49.20
2018-09-06T13:59:49.305Z,48.80
2018-09-06T14:02:17.518Z,50.60
2018-09-06T14:04:45.835Z,48.60
2018-09-06T14:07:14.413Z,50.80
2018-09-06T14:09:42.647Z,49.10
2018-09-06T14:12:11.126Z,50.70
2018-09-06T14:14:39.890Z,49.70
2018-09-06T14:17:08.114Z,53.40
2018-09-06T14:19:36.330Z,49.90
2018-09-06T14:22:04.588Z,49.50
2018-09-06T14:24:32.858Z,52.80
2018-09-06T14:27:01.170Z,52.10
2018-09-06T14:29:29.414Z,52.80
2018-09-06T14:31:58.286Z,53.30
2018-09-06T14:34:26.497Z,54.10
2018-09-06T14:36:55.029Z,54.20
2018-09-06T14:39:24.125Z,56.70
2018-09-06T14:41:52.348Z,57.00
2018-09-06T14:44:20.622Z,54.10
2018-09-06T14:46:48.882Z,58.50
2018-09-06T14:49:17.115Z,56.20
2018-09-06T14:51:45.417Z,53.80
2018-09-06T14:54:14.246Z,55.10
2018-09-06T14:56:42.494Z,61.10
2018-09-06T14:59:12.833Z,57.10
2018-09-06T15:01:41.766Z,60.10
2018-09-06T15:04:10.052Z,59.60
2018-09-06T15:06:38.722Z,60.40
2018-09-06T15:09:07.685Z,60.20
2018-09-06T15:11:35.933Z,58.20
2018-09-06T15:14:04.409Z,58.30
2018-09-06T15:16:33.102Z,60.70
2018-09-06T15:19:01.509Z,59.20
2018-09-06T15:21:29.938Z,61.60
2018-09-06T15:23:58.417Z,60.40
2018-09-06T15:26:26.670Z,59.90
2018-09-06T15:29:02.118Z,66.50
2018-09-06T15:31:30.342Z,59.90
2018-09-06T15:33:59.304Z,63.50
2018-09-06T15:36:27.977Z,61.80
2018-09-06T15:38:59.971Z,60.30
2018-09-06T15:41:28.210Z,60.00
2018-09-06T15:43:56.453Z,59.30
2018-09-06T15:46:24.821Z,59.40
2018-09-06T15:48:53.068Z,64.60
2018-09-06T15:51:21.937Z,63.60
2018-09-06T15:53:54.185Z,60.30
2018-09-06T15:56:25.196Z,63.40
2018-09-06T15:58:54.144Z,61.00
2018-09-06T16:01:22.386Z,61.50
2018-09-06T16:03:50.975Z,62.00
2018-09-06T16:06:19.465Z,60.70
2018-09-06T16:08:47.698Z,62.80
2018-09-06T16:11:16.029Z,61.90
2018-09-06T16:13:44.254Z,64.10
2018-09-06T16:16:13.126Z,61.60
2018-09-06T16:18:41.589Z,61.70
2018-09-06T16:23:56.241Z,60.10
2018-09-06T16:26:24.470Z,65.40
2018-09-06T16:28:53.242Z,67.10
2018-09-06T16:31:35.050Z,63.40
2018-09-06T16:34:03.678Z,62.40
2018-09-06T16:36:32.302Z,67.40
2018-09-06T16:39:01.491Z,66.80
2018-09-06T16:41:29.739Z,65.10
2018-09-06T16:43:59.420Z,65.50
2018-09-06T16:46:37.659Z,65.60
2018-09-06T16:49:06.607Z,65.90
2018-09-06T16:51:35.554Z,66.40
2018-09-06T16:54:05.545Z,70.60
2018-09-06T16:56:35.005Z,69.10
2018-09-06T16:59:03.254Z,72.20
2018-09-06T17:01:36.882Z,73.50
2018-09-06T17:04:05.125Z,72.20
2018-09-06T17:06:33.874Z,74.30
2018-09-06T17:09:02.139Z,74.00
2018-09-06T17:11:30.365Z,75.10
2018-09-06T17:13:58.601Z,76.00
2018-09-06T17:16:27.406Z,77.70
2018-09-06T17:18:56.130Z,77.70
2018-09-06T17:21:24.370Z,80.00
2018-09-06T17:23:53.480Z,80.70
2018-09-06T17:26:21.707Z,80.70
2018-09-06T17:28:49.975Z,82.10
2018-09-06T17:31:18.216Z,85.60
2018-09-06T17:33:46.470Z,85.80
2018-09-06T17:36:15.338Z,89.10
2018-09-06T17:38:43.839Z,91.90
2018-09-06T17:41:12.421Z,90.30
2018-09-06T17:43:40.890Z,92.90
2018-09-06T17:46:09.127Z,94.60
2018-09-06T17:48:37.523Z,93.80
2018-09-06T17:51:06.305Z,95.50
2018-09-06T17:53:35.158Z,95.60
2018-09-06T17:56:03.391Z,98.40
2018-09-06T17:58:31.603Z,98.70
2018-09-06T18:01:12.506Z,97.70
2018-09-06T18:03:40.742Z,99.10
2018-09-06T18:06:09.643Z,99.90
2018-09-06T18:08:44.256Z,99.90
2018-09-06T18:11:12.654Z,99.90
2018-09-06T18:13:40.895Z,99.90
2018-09-06T18:16:09.856Z,99.90
2018-09-06T18:18:38.325Z,99.90
2018-09-06T18:21:06.553Z,99.90
2018-09-06T18:23:35.116Z,99.90
2018-09-06T18:26:03.402Z,99.90
2018-09-06T18:28:31.795Z,99.90
2018-09-06T18:31:00.450Z,99.90
2018-09-06T18:33:29.282Z,99.90
2018-09-06T18:35:58.553Z,99.90
2018-09-06T18:38:35.134Z,99.90
2018-09-06T18:41:03.933Z,99.90
2018-09-06T18:43:32.213Z,99.90
2018-09-06T18:46:00.457Z,99.90
2018-09-06T18:48:28.693Z,99.90
2018-09-06T18:50:57.534Z,99.90
2018-09-06T18:53:26.145Z,99.90
2018-09-06T18:55:54.409Z,99.90
2018-09-06T18:58:22.652Z,99.90
2018-09-06T19:03:24.872Z,99.90
2018-09-06T19:05:53.663Z,99.90
2018-09-06T19:08:21.933Z,99.90
2018-09-06T19:10:50.157Z,99.90
2018-09-06T19:13:18.398Z,99.90
2018-09-06T19:15:47.042Z,99.90
2018-09-06T19:18:15.309Z,99.90
2018-09-06T19:20:43.546Z,99.90
2018-09-06T19:24:41.522Z,99.90
2018-09-06T19:27:09.812Z,99.90
2018-09-06T19:29:38.274Z,99.90
2018-09-06T19:32:06.595Z,99.90
2018-09-06T19:34:35.394Z,99.90
2018-09-06T19:37:07.866Z,99.90
2018-09-06T19:39:36.462Z,99.90
2018-09-06T19:42:04.730Z,99.90
2018-09-06T19:44:33.018Z,99.90
2018-09-06T19:47:01.306Z,99.90
2018-09-06T19:49:29.573Z,99.90
2018-09-06T19:51:58.108Z,99.90
2018-09-06T19:54:26.704Z,99.90
2018-09-06T19:56:55.322Z,99.90
2018-09-06T19:59:23.566Z,99.90
2018-09-06T20:01:51.857Z,99.90
2018-09-06T20:04:20.071Z,99.90
2018-09-06T20:06:48.879Z,99.90
2018-09-06T20:09:17.119Z,99.90
2018-09-06T20:13:10.126Z,99.90
2018-09-06T20:15:38.957Z,99.90
2018-09-06T20:18:07.201Z,99.90
2018-09-06T20:20:35.670Z,99.90
2018-09-06T20:23:04.561Z,99.90
2018-09-06T20:25:32.801Z,99.90
2018-09-06T20:28:01.066Z,99.90
2018-09-06T20:30:29.350Z,99.90
2018-09-06T20:32:57.591Z,99.90
2018-09-06T20:35:26.337Z,99.90
2018-09-06T20:37:55.138Z,99.90
2018-09-06T20:40:24.006Z,99.90
2018-09-06T20:42:52.261Z,99.90
2018-09-06T20:45:20.521Z,99.90
2018-09-06T20:47:48.786Z,99.90
2018-09-06T20:50:17.029Z,99.90
2018-09-06T20:52:45.641Z,99.90
2018-09-06T20:55:13.917Z,99.90
2018-09-06T20:57:42.157Z,99.90
2018-09-06T21:00:10.401Z,99.90
2018-09-06T21:02:39.512Z,99.90
2018-09-06T21:05:16.816Z,99.90
2018-09-06T21:07:45.100Z,99.90
2018-09-06T21:10:13.411Z,99.90
2018-09-06T21:12:41.827Z,99.90
2018-09-06T21:15:10.697Z,99.90
2018-09-06T21:17:38.967Z,99.90
2018-09-06T21:20:07.758Z,99.90
2018-09-06T21:22:35.993Z,99.90
2018-09-06T21:25:04.515Z,99.90
2018-09-06T21:27:32.747Z,99.90
2018-09-06T21:30:01.375Z,99.90
2018-09-06T21:32:29.814Z,99.90
2018-09-06T21:34:58.081Z,99.90
2018-09-06T21:37:26.522Z,99.90
2018-09-06T21:39:55.287Z,99.90
2018-09-06T21:42:23.522Z,99.90
2018-09-06T21:44:51.774Z,99.90
2018-09-06T21:47:20.185Z,99.90
2018-09-06T21:49:48.760Z,99.90
2018-09-06T21:52:18.170Z,99.90
2018-09-06T21:54:46.775Z,99.90
2018-09-06T21:57:15.003Z,99.90
2018-09-06T21:59:43.242Z,99.90
2018-09-06T22:02:16.943Z,99.90
2018-09-06T22:04:45.169Z,99.90
2018-09-06T22:07:13.928Z,99.90
2018-09-06T22:09:42.119Z,99.90
2018-09-06T22:12:15.866Z,99.90
2018-09-06T22:14:44.827Z,99.90
2018-09-06T22:17:13.398Z,99.90
2018-09-06T22:19:41.629Z,99.90
2018-09-06T22:22:09.918Z,99.90
2018-09-06T22:24:38.822Z,99.90
2018-09-06T22:27:07.118Z,99.90
2018-09-06T22:29:35.374Z,99.90
2018-09-06T22:32:04.070Z,99.90
2018-09-06T22:34:32.296Z,99.90
2018-09-06T22:37:00.854Z,99.90
2018-09-06T22:39:29.779Z,99.90
2018-09-06T22:41:58.022Z,99.90
2018-09-06T22:44:26.261Z,99.90
2018-09-06T22:46:54.546Z,99.90
2018-09-06T22:49:22.798Z,99.90
2018-09-06T22:51:52.141Z,99.90
2018-09-06T22:54:21.038Z,99.90
2018-09-06T22:56:49.302Z,99.90
2018-09-06T22:59:18.391Z,99.90
2018-09-06T23:01:47.013Z,99.90
2018-09-06T23:04:15.254Z,99.90
2018-09-06T23:06:43.815Z,99.90
2018-09-06T23:09:12.045Z,99.90
2018-09-06T23:11:40.299Z,99.90
2018-09-06T23:14:09.274Z,99.90
2018-09-06T23:16:38.307Z,99.90
2018-09-06T23:19:06.597Z,99.90
2018-09-06T23:21:39.879Z,99.90
2018-09-06T23:24:08.618Z,99.90
2018-09-06T23:26:36.922Z,99.90
2018-09-06T23:29:05.181Z,99.90
2018-09-06T23:31:33.461Z,99.90
2018-09-06T23:34:01.742Z,99.90
2018-09-06T23:36:30.751Z,99.90
2018-09-06T23:39:00.526Z,99.90
2018-09-06T23:41:29.175Z,99.90
2018-09-06T23:43:57.427Z,99.90
2018-09-06T23:46:26.281Z,99.90
2018-09-06T23:48:54.521Z,99.90
2018-09-06T23:51:23.540Z,99.90
2018-09-06T23:53:52.338Z,99.90
2018-09-06T23:56:20.559Z,99.90
2018-09-06T23:58:48.809Z,99.90
